Time;durP1;ratioP1;P1;durP2;ratioP2;P2;SDS_P1;SDS_P2;PMS_P1;PMS_P2;Temp;Humidity;BMP_temperature;BMP_pressure;BME280_temperature;BME280_humidity;BME280_pressure;Samples;Min_cycle;Max_cycle;Signal;HPM_P1;HPM_P2
2021/11/06 00:00:15;;;;;;;0.93;0.70;;;12.90;78.70;;;;;;5133597;28;20051;-58
2021/11/06 00:02:41;;;;;;;0.73;0.60;;;12.90;78.60;;;;;;5133464;28;20126;-58
2021/11/06 00:05:07;;;;;;;0.82;0.60;;;12.90;78.70;;;;;;5133335;28;20176;-57
2021/11/06 00:07:33;;;;;;;1.45;0.55;;;12.90;78.60;;;;;;5133157;28;20046;-58
2021/11/06 00:09:59;;;;;;;0.65;0.47;;;12.90;78.60;;;;;;5132714;28;20135;-57
2021/11/06 00:12:25;;;;;;;0.60;0.40;;;12.90;78.60;;;;;;5114310;28;20104;-57
2021/11/06 00:14:50;;;;;;;0.63;0.52;;;13.00;78.70;;;;;;5132574;28;20047;-60
2021/11/06 00:17:16;;;;;;;0.80;0.43;;;12.90;78.60;;;;;;5135921;27;20127;-61
2021/11/06 00:19:42;;;;;;;0.40;0.40;;;12.90;78.70;;;;;;5136954;27;20058;-57
2021/11/06 00:22:08;;;;;;;1.05;0.40;;;12.90;78.70;;;;;;5137170;27;20461;-57
2021/11/06 00:24:34;;;;;;;0.40;0.40;;;12.80;78.60;;;;;;5137175;27;20391;-57
2021/11/06 00:27:00;;;;;;;1.13;0.50;;;12.90;78.70;;;;;;5137119;27;20039;-57
2021/11/06 00:29:25;;;;;;;0.65;0.60;;;12.90;79.30;;;;;;5136108;27;20050;-57
2021/11/06 00:31:51;;;;;;;0.38;0.38;;;12.90;78.70;;;;;;5136502;27;20043;-57
2021/11/06 00:34:17;;;;;;;0.57;0.50;;;12.80;78.60;;;;;;5136834;27;20126;-57
2021/11/06 00:36:42;;;;;;;0.45;0.45;;;12.80;78.60;;;;;;5137082;27;20114;-58
2021/11/06 00:39:08;;;;;;;0.40;0.40;;;12.80;79.20;;;;;;5136685;27;20039;-57
2021/11/06 00:41:34;;;;;;;0.50;0.50;;;12.90;78.70;;;;;;5136862;27;20075;-58
2021/11/06 00:43:59;;;;;;;0.40;0.40;;;12.90;78.70;;;;;;5136792;27;20039;-57
2021/11/06 00:46:25;;;;;;;0.73;0.50;;;12.80;78.60;;;;;;5136355;27;20476;-58
2021/11/06 00:48:51;;;;;;;0.77;0.57;;;12.90;78.70;;;;;;5117712;27;20432;-58
2021/11/06 00:51:17;;;;;;;0.90;0.50;;;12.90;78.70;;;;;;5136516;27;20083;-58
2021/11/06 00:53:43;;;;;;;0.30;0.30;;;12.90;78.70;;;;;;5136593;27;20047;-57
2021/11/06 00:56:09;;;;;;;0.73;0.47;;;12.90;78.70;;;;;;5136770;27;20047;-58
2021/11/06 00:58:35;;;;;;;0.68;0.43;;;12.90;78.70;;;;;;5136533;27;20031;-57
2021/11/06 01:01:00;;;;;;;0.90;0.57;;;12.90;78.70;;;;;;5135701;27;20036;-57
2021/11/06 01:03:26;;;;;;;0.93;0.52;;;12.90;78.70;;;;;;5136581;27;20499;-57
2021/11/06 01:05:52;;;;;;;0.32;0.30;;;12.80;78.60;;;;;;5136381;27;20475;-58
2021/11/06 01:08:18;;;;;;;0.98;0.50;;;12.90;78.70;;;;;;5136474;27;20454;-58
2021/11/06 01:10:44;;;;;;;0.32;0.32;;;12.90;78.70;;;;;;5136363;27;20050;-59
2021/11/06 01:13:11;;;;;;;0.40;0.40;;;12.90;78.70;;;;;;5135610;27;20035;-58
2021/11/06 01:15:37;;;;;;;1.10;0.80;;;12.90;78.70;;;;;;5136076;27;20043;-58
2021/11/06 01:18:03;;;;;;;0.70;0.50;;;12.90;79.40;;;;;;5135647;27;20039;-59
2021/11/06 01:20:29;;;;;;;0.50;0.50;;;12.90;78.70;;;;;;5135944;27;20039;-62
2021/11/06 01:22:54;;;;;;;0.55;0.50;;;12.90;78.70;;;;;;5135761;27;20031;-58
2021/11/06 01:25:20;;;;;;;0.52;0.50;;;12.80;78.70;;;;;;5136025;27;20035;-58
2021/11/06 01:27:46;;;;;;;0.52;0.50;;;12.90;78.70;;;;;;5135325;27;20047;-61
2021/11/06 01:30:12;;;;;;;0.52;0.40;;;12.90;78.70;;;;;;5136097;27;20035;-58
2021/11/06 01:32:39;;;;;;;0.35;0.35;;;12.90;78.70;;;;;;5134678;27;20070;-58
2021/11/06 01:35:06;;;;;;;0.50;0.40;;;12.90;78.70;;;;;;5135643;27;20047;-57
2021/11/06 01:37:32;;;;;;;1.25;0.70;;;12.90;78.70;;;;;;5135366;27;20039;-58
2021/11/06 01:39:58;;;;;;;1.17;0.50;;;12.80;78.70;;;;;;5135794;27;20091;-61
2021/11/06 01:42:25;;;;;;;0.82;0.60;;;12.90;78.80;;;;;;5135346;27;20115;-60
2021/11/06 01:44:51;;;;;;;0.52;0.50;;;12.90;78.70;;;;;;5116137;27;20051;-58
2021/11/06 01:47:17;;;;;;;0.50;0.50;;;12.90;78.80;;;;;;5135334;27;20047;-58
2021/11/06 01:49:43;;;;;;;1.00;0.50;;;12.80;78.70;;;;;;5135134;27;20054;-58
2021/11/06 01:52:08;;;;;;;0.43;0.40;;;12.80;78.70;;;;;;5135219;27;20092;-57
2021/11/06 01:54:35;;;;;;;0.50;0.50;;;12.80;78.70;;;;;;5134918;27;20043;-57
2021/11/06 01:57:01;;;;;;;0.45;0.43;;;12.90;78.80;;;;;;5134842;27;20132;-59
2021/11/06 01:59:27;;;;;;;1.05;0.70;;;12.90;78.80;;;;;;5135248;27;20046;-57
2021/11/06 02:01:53;;;;;;;1.00;0.60;;;12.80;78.70;;;;;;5135369;27;20035;-59
2021/11/06 02:04:18;;;;;;;0.50;0.50;;;12.90;78.80;;;;;;5134280;27;20054;-56
2021/11/06 02:06:44;;;;;;;1.35;0.60;;;12.80;78.70;;;;;;5134782;27;20544;-56
2021/11/06 02:09:10;;;;;;;0.63;0.57;;;12.90;78.80;;;;;;5134835;27;20039;-57
2021/11/06 02:11:38;;;;;;;0.60;0.60;;;12.80;78.70;;;;;;5135076;27;20043;-57
2021/11/06 02:14:04;;;;;;;0.50;0.50;;;12.90;78.80;;;;;;5134931;27;20043;-57
2021/11/06 02:16:30;;;;;;;0.98;0.70;;;12.90;78.80;;;;;;5134541;27;20043;-58
2021/11/06 02:18:56;;;;;;;0.68;0.55;;;12.80;78.70;;;;;;5134696;27;20031;-58
2021/11/06 02:21:22;;;;;;;0.43;0.43;;;12.90;78.80;;;;;;5134151;27;20513;-58
2021/11/06 02:23:49;;;;;;;0.60;0.52;;;12.90;78.80;;;;;;5134531;27;20610;-58
2021/11/06 02:26:18;;;;;;;0.80;0.60;;;12.80;78.70;;;;;;5134549;27;20027;-60
2021/11/06 02:28:49;;;;;;;1.25;0.50;;;12.90;78.80;;;;;;5134920;27;20388;-61
2021/11/06 02:31:15;;;;;;;0.52;0.52;;;12.80;78.70;;;;;;5134573;27;20051;-57
2021/11/06 02:33:41;;;;;;;0.60;0.60;;;12.90;78.80;;;;;;5134436;27;20491;-58
2021/11/06 02:36:07;;;;;;;1.10;0.70;;;12.90;78.80;;;;;;5115242;27;20088;-57
2021/11/06 02:38:33;;;;;;;0.68;0.52;;;12.80;78.70;;;;;;5134501;27;20039;-59
2021/11/06 02:40:59;;;;;;;0.75;0.60;;;12.90;78.80;;;;;;5133943;27;20035;-57
2021/11/06 02:43:25;;;;;;;1.42;0.60;;;12.80;78.70;;;;;;5134671;27;20086;-58
2021/11/06 02:45:51;;;;;;;0.88;0.68;;;12.80;78.70;;;;;;5134478;27;20074;-58
2021/11/06 02:48:16;;;;;;;0.52;0.50;;;12.90;78.80;;;;;;5134266;27;20464;-58
2021/11/06 02:50:42;;;;;;;0.57;0.50;;;12.80;78.70;;;;;;5134177;27;20050;-59
2021/11/06 02:53:09;;;;;;;0.60;0.60;;;12.80;78.80;;;;;;5133499;27;20397;-57
2021/11/06 02:55:35;;;;;;;0.73;0.68;;;12.80;79.40;;;;;;5134379;27;20050;-58
2021/11/06 02:58:01;;;;;;;1.20;0.68;;;12.90;78.80;;;;;;5133931;27;20042;-59
2021/11/06 03:00:27;;;;;;;0.82;0.65;;;12.90;78.80;;;;;;5134427;27;20391;-57
2021/11/06 03:02:56;;;;;;;0.50;0.50;;;12.90;78.80;;;;;;5133971;27;20113;-59
2021/11/06 03:05:23;;;;;;;0.82;0.77;;;12.90;78.80;;;;;;5134118;27;20039;-58
2021/11/06 03:07:49;;;;;;;1.63;0.80;;;12.90;78.80;;;;;;5133418;27;20043;-59
2021/11/06 03:10:17;;;;;;;0.55;0.50;;;12.90;78.80;;;;;;5115254;27;20090;-57
2021/11/06 03:12:44;;;;;;;0.90;0.85;;;12.90;78.80;;;;;;5134224;27;20058;-57
2021/11/06 03:15:10;;;;;;;0.77;0.75;;;12.90;78.80;;;;;;5133840;27;20494;-57
2021/11/06 03:17:36;;;;;;;0.77;0.68;;;12.90;78.80;;;;;;5115850;27;20043;-60
2021/11/06 03:20:04;;;;;;;1.15;0.82;;;12.90;78.80;;;;;;5133700;27;20479;-57
2021/11/06 03:22:30;;;;;;;0.95;0.65;;;12.80;78.80;;;;;;5133351;27;20116;-58
2021/11/06 03:24:56;;;;;;;1.83;1.10;;;12.80;78.80;;;;;;5133613;27;20035;-57
2021/11/06 03:27:22;;;;;;;1.10;0.70;;;12.80;78.80;;;;;;5133717;27;20047;-57
2021/11/06 03:29:47;;;;;;;1.05;0.65;;;12.80;78.80;;;;;;5133264;28;20065;-57
2021/11/06 03:32:13;;;;;;;0.63;0.63;;;12.80;78.80;;;;;;5133669;28;20079;-56
2021/11/06 03:34:39;;;;;;;0.95;0.75;;;12.90;78.80;;;;;;5133911;28;20052;-58
2021/11/06 03:37:05;;;;;;;0.88;0.77;;;12.90;78.80;;;;;;5133548;28;20042;-58
2021/11/06 03:39:31;;;;;;;1.00;0.80;;;12.90;78.80;;;;;;5133291;28;20043;-58
2021/11/06 03:41:57;;;;;;;0.80;0.73;;;12.90;78.80;;;;;;5133611;28;20451;-58
2021/11/06 03:44:23;;;;;;;1.15;0.80;;;12.80;78.80;;;;;;5133768;28;20047;-58
2021/11/06 03:46:49;;;;;;;1.17;0.77;;;12.80;78.80;;;;;;5133594;28;20043;-58
2021/11/06 03:49:15;;;;;;;0.70;0.70;;;12.90;78.80;;;;;;5133364;28;20092;-57
2021/11/06 03:51:41;;;;;;;0.70;0.70;;;12.90;78.80;;;;;;5135741;27;20039;-57
2021/11/06 03:54:07;;;;;;;0.50;0.50;;;12.90;78.80;;;;;;5137256;27;20510;-57
2021/11/06 03:56:34;;;;;;;0.95;0.85;;;12.90;78.80;;;;;;5137489;27;20043;-57
2021/11/06 03:59:00;;;;;;;0.95;0.77;;;12.90;78.80;;;;;;5137829;27;20047;-58
2021/11/06 04:01:26;;;;;;;3.00;0.98;;;12.90;78.80;;;;;;5137401;27;20039;-57
2021/11/06 04:03:52;;;;;;;0.93;0.70;;;12.80;79.10;;;;;;5135804;27;20079;-57
2021/11/06 04:06:17;;;;;;;0.85;0.75;;;12.80;78.80;;;;;;5137782;27;20443;-58
2021/11/06 04:08:43;;;;;;;1.30;1.00;;;12.90;78.80;;;;;;5137309;27;20505;-56
2021/11/06 04:11:10;;;;;;;1.15;0.63;;;12.90;78.80;;;;;;5136824;27;20856;-58
2021/11/06 04:13:36;;;;;;;1.55;0.90;;;12.90;78.80;;;;;;5136368;27;20076;-58
2021/11/06 04:16:01;;;;;;;1.05;0.70;;;12.90;78.80;;;;;;5136627;27;20515;-59
2021/11/06 04:18:27;;;;;;;1.63;1.08;;;12.80;78.80;;;;;;5137032;27;20118;-57
2021/11/06 04:20:53;;;;;;;0.68;0.68;;;12.80;78.80;;;;;;5137488;27;20075;-57
2021/11/06 04:23:19;;;;;;;1.15;0.75;;;12.90;78.80;;;;;;5136979;27;20035;-58
2021/11/06 04:25:45;;;;;;;0.85;0.77;;;12.80;78.80;;;;;;5136054;27;20144;-58
2021/11/06 04:28:13;;;;;;;1.67;1.17;;;12.90;78.80;;;;;;5101409;27;20048;-57
2021/11/06 04:30:39;;;;;;;0.80;0.70;;;12.90;78.80;;;;;;5136906;27;20046;-59
2021/11/06 04:33:05;;;;;;;1.05;0.85;;;12.80;78.80;;;;;;5137082;27;20120;-60
2021/11/06 04:35:30;;;;;;;0.68;0.68;;;12.90;78.80;;;;;;5136676;27;20479;-60
2021/11/06 04:37:57;;;;;;;0.95;0.90;;;12.90;78.80;;;;;;5136820;27;20078;-57
2021/11/06 04:40:23;;;;;;;0.93;0.82;;;12.80;78.80;;;;;;5137015;27;20092;-64
2021/11/06 04:42:48;;;;;;;0.93;0.77;;;12.80;78.80;;;;;;5136442;27;20449;-58
2021/11/06 04:45:14;;;;;;;1.25;0.90;;;12.90;78.80;;;;;;5136452;27;20039;-58
2021/11/06 04:47:41;;;;;;;1.73;0.80;;;12.90;78.80;;;;;;5118466;27;20071;-57
2021/11/06 04:50:09;;;;;;;1.33;0.82;;;12.80;78.80;;;;;;5136744;27;20136;-62
2021/11/06 04:52:35;;;;;;;1.10;1.00;;;12.90;78.80;;;;;;5136489;27;20039;-61
2021/11/06 04:55:07;;;;;;;1.20;0.98;;;12.80;78.80;;;;;;5136397;27;20047;-65
2021/11/06 04:57:33;;;;;;;1.38;1.10;;;12.90;78.90;;;;;;5136443;27;20039;-59
2021/11/06 04:59:59;;;;;;;1.00;0.90;;;12.80;78.80;;;;;;5135585;27;20051;-60
2021/11/06 05:02:24;;;;;;;1.55;0.90;;;12.90;78.90;;;;;;5134898;27;20035;-59
2021/11/06 05:04:50;;;;;;;1.08;1.00;;;12.90;78.80;;;;;;5136422;27;20042;-58
2021/11/06 05:07:16;;;;;;;1.30;1.10;;;12.90;78.80;;;;;;5136385;27;20505;-58
2021/11/06 05:09:43;;;;;;;0.82;0.82;;;12.90;78.80;;;;;;5136340;27;20043;-56
2021/11/06 05:12:09;;;;;;;0.80;0.80;;;12.90;78.90;;;;;;5136102;27;20522;-60
2021/11/06 05:14:35;;;;;;;1.20;0.75;;;12.80;78.80;;;;;;5135389;27;20130;-59
2021/11/06 05:17:02;;;;;;;1.50;1.00;;;12.80;78.80;;;;;;5136279;27;20081;-59
2021/11/06 05:19:28;;;;;;;1.27;1.08;;;12.90;78.90;;;;;;5136192;27;20047;-60
2021/11/06 05:21:53;;;;;;;1.65;1.42;;;12.90;78.90;;;;;;5136224;27;20116;-59
2021/11/06 05:24:19;;;;;;;1.70;1.08;;;12.90;78.80;;;;;;5135489;27;20047;-58
2021/11/06 05:26:45;;;;;;;1.67;1.27;;;12.90;78.90;;;;;;5135922;27;20035;-58
2021/11/06 05:29:10;;;;;;;1.55;1.00;;;13.00;78.90;;;;;;5135859;27;20092;-59
2021/11/06 05:31:37;;;;;;;0.93;0.90;;;12.80;78.80;;;;;;5135345;27;20047;-59
2021/11/06 05:34:04;;;;;;;1.73;1.30;;;12.90;78.90;;;;;;5135612;27;20083;-63
2021/11/06 05:36:30;;;;;;;1.30;1.08;;;12.90;78.80;;;;;;5135624;27;20043;-59
2021/11/06 05:38:56;;;;;;;1.25;1.13;;;12.80;78.90;;;;;;5134466;27;20063;-59
2021/11/06 05:41:23;;;;;;;1.48;1.20;;;12.80;78.80;;;;;;5116532;27;20055;-65
2021/11/06 05:43:48;;;;;;;1.75;1.20;;;12.90;78.90;;;;;;5135382;27;20527;-59
2021/11/06 05:46:14;;;;;;;1.30;1.20;;;12.90;78.90;;;;;;5135014;27;20047;-68
2021/11/06 05:48:40;;;;;;;2.05;1.20;;;12.80;78.80;;;;;;5135264;27;20035;-58
2021/11/06 05:51:06;;;;;;;1.38;1.13;;;12.80;78.90;;;;;;5135531;27;20407;-60
2021/11/06 05:53:32;;;;;;;1.65;1.17;;;12.90;78.90;;;;;;5116919;27;20043;-60
2021/11/06 05:55:58;;;;;;;1.67;1.30;;;12.90;78.90;;;;;;5116080;27;20065;-56
2021/11/06 05:58:23;;;;;;;1.40;1.20;;;12.90;78.90;;;;;;5135142;27;20058;-60
2021/11/06 06:00:49;;;;;;;2.00;1.50;;;12.90;78.90;;;;;;5134929;27;20499;-59
2021/11/06 06:03:15;;;;;;;1.30;1.10;;;12.80;78.80;;;;;;5135332;27;20074;-65
2021/11/06 06:05:41;;;;;;;1.02;0.93;;;12.90;78.90;;;;;;5135286;27;20043;-58
2021/11/06 06:08:06;;;;;;;1.95;1.38;;;12.80;78.90;;;;;;5116468;27;20437;-59
2021/11/06 06:10:32;;;;;;;1.75;1.40;;;12.80;78.90;;;;;;5135217;27;20046;-59
2021/11/06 06:12:58;;;;;;;1.35;1.25;;;12.90;78.90;;;;;;5116297;27;20100;-58
2021/11/06 06:15:24;;;;;;;2.30;1.50;;;12.90;78.90;;;;;;5134910;27;20480;-62
2021/11/06 06:17:51;;;;;;;1.67;1.58;;;12.80;78.90;;;;;;5134424;27;20126;-58
2021/11/06 06:20:18;;;;;;;1.40;1.30;;;12.90;78.90;;;;;;5134946;27;20083;-59
2021/11/06 06:22:45;;;;;;;1.60;1.27;;;12.80;78.90;;;;;;5134868;27;20415;-58
2021/11/06 06:25:12;;;;;;;2.45;1.73;;;12.80;78.90;;;;;;5134594;27;20414;-61
2021/11/06 06:27:39;;;;;;;1.90;1.48;;;12.90;78.90;;;;;;5134471;27;20062;-61
2021/11/06 06:30:08;;;;;;;1.75;1.33;;;12.90;78.90;;;;;;5134517;27;20471;-58
2021/11/06 06:32:33;;;;;;;2.80;1.45;;;12.90;78.90;;;;;;5115620;27;20556;-62
2021/11/06 06:35:02;;;;;;;2.17;1.40;;;12.90;78.90;;;;;;5134410;27;20043;-68
2021/11/06 06:37:28;;;;;;;1.48;1.38;;;12.90;78.90;;;;;;5115570;27;20051;-59
2021/11/06 06:39:54;;;;;;;2.25;1.73;;;12.90;78.90;;;;;;5134360;27;20039;-67
2021/11/06 06:42:20;;;;;;;1.65;1.48;;;12.90;78.90;;;;;;5133770;27;20042;-60
2021/11/06 06:44:46;;;;;;;2.13;1.48;;;12.80;79.50;;;;;;5133494;27;20800;-57
2021/11/06 06:47:13;;;;;;;1.98;1.50;;;12.90;78.90;;;;;;5133719;27;20032;-58
2021/11/06 06:49:39;;;;;;;2.45;1.60;;;12.80;78.90;;;;;;5114182;27;20123;-62
2021/11/06 06:52:05;;;;;;;1.88;1.20;;;12.90;78.90;;;;;;5133341;27;20126;-57
2021/11/06 06:54:31;;;;;;;1.60;1.40;;;12.80;78.90;;;;;;5134419;27;20111;-57
2021/11/06 06:56:56;;;;;;;1.77;1.40;;;12.90;78.90;;;;;;5134217;27;20039;-58
2021/11/06 06:59:22;;;;;;;1.58;1.40;;;12.90;78.90;;;;;;5133992;27;20471;-59
2021/11/06 07:01:48;;;;;;;2.13;1.70;;;12.80;78.90;;;;;;5134159;27;20433;-57
2021/11/06 07:04:14;;;;;;;2.17;1.58;;;12.80;78.80;;;;;;5134010;27;20055;-68
2021/11/06 07:06:40;;;;;;;2.15;1.50;;;12.90;78.90;;;;;;5133899;27;20035;-60
2021/11/06 07:09:06;;;;;;;1.88;1.50;;;12.90;78.90;;;;;;5134132;27;20406;-59
2021/11/06 07:11:31;;;;;;;2.03;1.50;;;12.90;78.90;;;;;;5133658;27;20096;-58
2021/11/06 07:13:57;;;;;;;1.80;1.58;;;12.90;78.90;;;;;;5133767;27;20039;-57
2021/11/06 07:16:23;;;;;;;1.83;1.63;;;12.90;78.90;;;;;;5133807;27;20103;-58
2021/11/06 07:18:49;;;;;;;2.30;1.60;;;12.90;78.90;;;;;;5134088;27;20076;-58
2021/11/06 07:21:14;;;;;;;2.28;1.60;;;12.90;78.90;;;;;;5133158;27;20046;-57
2021/11/06 07:23:40;;;;;;;2.60;1.65;;;12.90;78.90;;;;;;5134005;27;20039;-60
2021/11/06 07:26:06;;;;;;;2.45;2.03;;;12.90;78.90;;;;;;5133432;27;20491;-58
2021/11/06 07:28:32;;;;;;;2.85;1.80;;;12.90;78.90;;;;;;5133789;27;20391;-57
2021/11/06 07:30:59;;;;;;;2.33;1.65;;;12.90;78.90;;;;;;5133137;27;20047;-65
2021/11/06 07:33:25;;;;;;;1.90;1.60;;;12.90;78.90;;;;;;5133223;28;20130;-61
2021/11/06 07:35:51;;;;;;;2.15;1.63;;;12.90;78.90;;;;;;5133499;28;20079;-68
2021/11/06 07:38:16;;;;;;;2.28;1.70;;;12.80;78.80;;;;;;5133519;28;20131;-60
2021/11/06 07:40:43;;;;;;;2.28;1.73;;;12.90;78.80;;;;;;5133714;28;20518;-58
2021/11/06 07:43:09;;;;;;;1.85;1.63;;;12.80;78.80;;;;;;5133187;28;20031;-58
2021/11/06 07:45:35;;;;;;;3.78;2.10;;;12.90;78.90;;;;;;5133404;28;20043;-58
2021/11/06 07:48:01;;;;;;;2.28;2.03;;;12.90;78.90;;;;;;5133518;28;20054;-61
2021/11/06 07:50:28;;;;;;;2.15;1.88;;;12.90;78.80;;;;;;5133795;28;20444;-59
2021/11/06 07:52:54;;;;;;;3.25;1.77;;;12.90;78.90;;;;;;5133020;28;20043;-59
2021/11/06 07:55:20;;;;;;;2.70;2.05;;;12.90;78.80;;;;;;5133642;28;20039;-59
2021/11/06 07:57:46;;;;;;;3.33;2.22;;;12.80;78.80;;;;;;5133490;28;20054;-63
2021/11/06 08:00:17;;;;;;;2.08;1.85;;;12.90;78.80;;;;;;5133670;28;20070;-58
2021/11/06 08:02:44;;;;;;;3.72;2.17;;;12.90;79.50;;;;;;5149558;27;20047;-63
2021/11/06 08:05:12;;;;;;;3.63;2.00;;;12.90;78.80;;;;;;5133278;28;20058;-59
2021/11/06 08:07:38;;;;;;;2.20;2.00;;;12.90;78.80;;;;;;5133150;28;20085;-58
2021/11/06 08:10:06;;;;;;;2.17;1.85;;;12.90;78.90;;;;;;5133322;28;20039;-60
2021/11/06 08:12:33;;;;;;;2.35;1.80;;;12.90;78.80;;;;;;5133455;28;20156;-58
2021/11/06 08:14:59;;;;;;;3.58;1.90;;;12.90;78.80;;;;;;5132795;28;20050;-58
2021/11/06 08:17:25;;;;;;;2.53;1.65;;;12.90;78.80;;;;;;5133109;28;20388;-57
2021/11/06 08:19:50;;;;;;;2.28;2.05;;;12.90;78.80;;;;;;5133491;28;20139;-62
2021/11/06 08:22:16;;;;;;;2.60;2.03;;;12.80;78.80;;;;;;5133466;28;20398;-64
2021/11/06 08:24:42;;;;;;;1.88;1.70;;;12.90;78.90;;;;;;5132685;28;20460;-60
2021/11/06 08:27:08;;;;;;;1.88;1.70;;;12.80;78.80;;;;;;5133151;28;20532;-60
2021/11/06 08:29:35;;;;;;;2.28;1.70;;;12.90;78.80;;;;;;5133095;28;20047;-60
2021/11/06 08:32:01;;;;;;;4.18;2.13;;;12.90;78.80;;;;;;5114640;28;20124;-58
2021/11/06 08:34:28;;;;;;;2.30;2.10;;;12.90;78.80;;;;;;5133240;28;20051;-58
2021/11/06 08:36:55;;;;;;;2.70;2.08;;;12.90;78.80;;;;;;5133018;27;20031;-58
2021/11/06 08:39:22;;;;;;;2.20;1.92;;;12.90;78.80;;;;;;5135705;27;20038;-65
2021/11/06 08:41:48;;;;;;;2.60;1.88;;;12.90;78.80;;;;;;5136939;27;20391;-65
2021/11/06 08:44:16;;;;;;;2.47;1.90;;;13.00;78.90;;;;;;5136668;27;20387;-62
2021/11/06 08:46:45;;;;;;;2.85;2.00;;;12.90;78.80;;;;;;5136446;27;20100;-58
2021/11/06 08:49:11;;;;;;;2.35;1.77;;;13.00;78.90;;;;;;5136857;27;20398;-66
2021/11/06 08:51:38;;;;;;;2.75;2.15;;;12.90;78.80;;;;;;5136681;27;20435;-65
2021/11/06 08:54:04;;;;;;;3.13;2.20;;;12.90;78.80;;;;;;5136571;27;20533;-61
2021/11/06 08:56:30;;;;;;;2.70;2.50;;;12.90;78.90;;;;;;5136135;27;20070;-62
2021/11/06 08:58:57;;;;;;;2.30;1.95;;;12.90;78.80;;;;;;5136299;27;20082;-64
2021/11/06 09:01:24;;;;;;;2.80;2.00;;;12.90;78.90;;;;;;5136460;27;20386;-65
2021/11/06 09:03:51;;;;;;;2.22;1.83;;;12.90;78.80;;;;;;5136637;27;20050;-64
2021/11/06 09:06:18;;;;;;;3.17;1.73;;;12.90;78.80;;;;;;5136636;27;20058;-67
2021/11/06 09:08:44;;;;;;;1.92;1.55;;;12.90;78.80;;;;;;5136138;27;20047;-65
2021/11/06 09:11:12;;;;;;;2.10;1.75;;;12.90;78.80;;;;;;5135249;27;20368;-65
2021/11/06 09:13:39;;;;;;;1.70;1.60;;;12.90;78.80;;;;;;5124961;27;20031;-64
2021/11/06 09:16:10;;;;;;;6.18;2.40;;;12.90;78.90;;;;;;5136002;27;20486;-65
2021/11/06 09:18:40;;;;;;;2.17;1.77;;;12.90;78.80;;;;;;5136342;27;20176;-61
2021/11/06 09:21:08;;;;;;;2.15;1.92;;;12.90;78.80;;;;;;5136337;27;20128;-65
2021/11/06 09:23:35;;;;;;;2.70;2.10;;;12.90;78.90;;;;;;5117791;27;20059;-65
2021/11/06 09:26:01;;;;;;;3.17;2.45;;;12.90;78.80;;;;;;5135713;27;20491;-63
2021/11/06 09:28:27;;;;;;;3.30;2.20;;;12.90;78.80;;;;;;5131848;27;21485;-57
2021/11/06 09:30:55;;;;;;;2.22;1.95;;;12.90;78.80;;;;;;5108509;27;20054;-64
2021/11/06 09:33:21;;;;;;;2.20;1.85;;;12.90;78.80;;;;;;5135257;27;20129;-61
2021/11/06 09:35:47;;;;;;;2.88;2.03;;;12.90;78.80;;;;;;5164558;27;20513;-64
2021/11/06 09:38:14;;;;;;;2.35;1.92;;;12.90;78.80;;;;;;5137721;27;20121;-68
2021/11/06 09:40:40;;;;;;;2.35;1.98;;;12.90;78.80;;;;;;5139110;27;20062;-63
2021/11/06 09:43:06;;;;;;;4.97;2.25;;;12.90;78.80;;;;;;5134811;27;20039;-62
2021/11/06 09:45:32;;;;;;;2.40;2.00;;;12.90;78.90;;;;;;5135006;27;20088;-63
2021/11/06 09:47:57;;;;;;;3.30;2.00;;;12.90;78.80;;;;;;5148115;27;20066;-64
2021/11/06 09:50:24;;;;;;;3.10;2.33;;;12.90;78.90;;;;;;5155189;27;20047;-62
2021/11/06 09:52:52;;;;;;;2.67;2.17;;;12.90;78.90;;;;;;5155862;27;20082;-65
2021/11/06 09:55:22;;;;;;;2.38;1.90;;;12.90;78.90;;;;;;5155432;27;20047;-62
2021/11/06 09:57:49;;;;;;;3.13;2.08;;;12.90;78.90;;;;;;5155365;27;20496;-65
2021/11/06 10:00:16;;;;;;;3.15;2.45;;;12.90;78.90;;;;;;5155147;27;20047;-60
2021/11/06 10:02:42;;;;;;;3.58;2.10;;;12.90;78.90;;;;;;5155799;27;20391;-64
2021/11/06 10:05:09;;;;;;;3.10;2.30;;;12.90;78.90;;;;;;5143818;27;20111;-59
2021/11/06 10:07:38;;;;;;;3.20;2.00;;;12.90;78.90;;;;;;5134093;27;20566;-66
2021/11/06 10:10:11;;;;;;;2.58;1.90;;;12.90;78.90;;;;;;5115759;27;20074;-65
2021/11/06 10:12:56;;;;;;;2.17;1.88;;;12.90;78.90;;;;;;5132161;27;20039;-57
2021/11/06 10:15:24;;;;;;;3.25;2.28;;;12.90;78.80;;;;;;5132200;27;20039;-68
2021/11/06 10:17:50;;;;;;;2.17;1.83;;;12.90;78.90;;;;;;5115436;27;20039;-56
2021/11/06 10:20:22;;;;;;;2.30;2.10;;;12.90;78.90;;;;;;5115435;27;20169;-56
2021/11/06 10:22:49;;;;;;;3.17;2.38;;;12.90;78.90;;;;;;5115543;27;20053;-59
2021/11/06 10:25:17;;;;;;;3.15;2.17;;;12.90;78.80;;;;;;5153867;27;20045;-68
2021/11/06 10:27:54;;;;;;;2.58;2.22;;;12.90;78.90;;;;;;5140154;27;20070;-63
2021/11/06 10:30:34;;;;;;;2.30;1.92;;;12.90;78.80;;;;;;5130159;27;20505;-60
2021/11/06 10:33:17;;;;;;;2.63;1.95;;;12.90;78.90;;;;;;5112009;27;20581;-58
2021/11/06 10:35:49;;;;;;;2.38;2.13;;;12.90;78.90;;;;;;5130583;27;20079;-65
2021/11/06 10:38:23;;;;;;;2.45;2.25;;;12.90;78.90;;;;;;5130029;27;20043;-58
2021/11/06 10:40:55;;;;;;;3.70;2.00;;;12.90;78.90;;;;;;5130137;27;20038;-64
2021/11/06 10:43:23;;;;;;;2.25;1.85;;;12.90;78.90;;;;;;5130355;27;20057;-66
2021/11/06 10:45:51;;;;;;;2.92;2.10;;;12.90;78.90;;;;;;5130114;27;20130;-59
2021/11/06 10:48:20;;;;;;;2.13;1.92;;;13.00;79.00;;;;;;5130029;27;20122;-63
2021/11/06 10:50:55;;;;;;;3.08;2.40;;;12.90;78.90;;;;;;5129301;27;20057;-67
2021/11/06 10:53:43;;;;;;;2.42;2.05;;;12.90;78.90;;;;;;5130303;27;20130;-58
2021/11/06 10:56:14;;;;;;;2.33;1.98;;;12.90;78.80;;;;;;5130346;27;20083;-67
2021/11/06 10:58:41;;;;;;;2.40;1.90;;;13.00;78.90;;;;;;5129821;27;20047;-67
2021/11/06 11:01:10;;;;;;;2.08;1.85;;;12.90;78.90;;;;;;5128960;27;20126;-68
2021/11/06 11:03:42;;;;;;;2.90;2.15;;;12.90;78.90;;;;;;5130167;27;20049;-66
2021/11/06 11:06:19;;;;;;;3.05;1.92;;;12.90;78.90;;;;;;5131770;27;20487;-69
2021/11/06 11:08:55;;;;;;;2.50;2.20;;;12.90;78.80;;;;;;5133848;27;20058;-69
2021/11/06 11:11:24;;;;;;;3.03;2.40;;;12.90;78.90;;;;;;5131247;27;20039;-62
2021/11/06 11:13:56;;;;;;;2.63;2.03;;;12.90;78.90;;;;;;5132381;27;20043;-66
2021/11/06 11:16:22;;;;;;;3.53;2.85;;;12.90;78.90;;;;;;5133294;27;20099;-69
2021/11/06 11:18:50;;;;;;;2.47;1.90;;;12.90;78.90;;;;;;5146776;27;20509;-66
2021/11/06 11:21:18;;;;;;;3.22;2.55;;;13.00;78.90;;;;;;5132906;27;20495;-69
2021/11/06 11:23:45;;;;;;;2.28;1.80;;;12.90;78.90;;;;;;5133500;27;20039;-70
2021/11/06 11:26:11;;;;;;;2.40;2.10;;;13.00;78.90;;;;;;5133394;27;20039;-68
2021/11/06 11:28:39;;;;;;;3.30;2.20;;;13.00;79.00;;;;;;5133412;27;20054;-69
2021/11/06 11:31:05;;;;;;;2.30;1.90;;;13.00;78.90;;;;;;5134025;27;20066;-68
2021/11/06 11:33:33;;;;;;;3.47;2.55;;;13.00;79.00;;;;;;5132763;28;20082;-65
2021/11/06 11:35:59;;;;;;;2.58;2.05;;;12.90;78.90;;;;;;5115122;28;20108;-69
2021/11/06 11:38:25;;;;;;;3.55;2.38;;;13.00;79.00;;;;;;5133359;28;20092;-63
2021/11/06 11:41:45;;;;;;;2.70;2.08;;;13.00;79.00;;;;;;5133383;28;20043;-59
2021/11/06 11:44:28;;;;;;;2.80;2.28;;;13.00;78.80;;;;;;5047696;28;20060;-66
2021/11/06 11:47:01;;;;;;;2.50;2.17;;;13.00;79.00;;;;;;5049879;28;20060;-57
2021/11/06 11:49:35;;;;;;;3.42;2.05;;;13.00;79.00;;;;;;5049194;28;20053;-65
2021/11/06 11:52:29;;;;;;;2.85;2.25;;;13.00;79.00;;;;;;5032733;28;20057;-58
2021/11/06 11:55:02;;;;;;;3.42;2.40;;;13.00;78.90;;;;;;5049759;28;20061;-68
2021/11/06 11:57:28;;;;;;;2.75;1.90;;;12.90;78.90;;;;;;5049618;28;20073;-69
2021/11/06 11:59:55;;;;;;;3.15;2.35;;;13.00;79.00;;;;;;5065879;28;20056;-69
2021/11/06 12:02:29;;;;;;;2.75;1.98;;;12.90;78.90;;;;;;5032547;28;20432;-69
2021/11/06 12:05:17;;;;;;;3.00;2.20;;;13.00;79.00;;;;;;5032385;28;20080;-69
2021/11/06 12:07:46;;;;;;;2.35;2.03;;;13.00;78.90;;;;;;5056352;28;20187;-70
2021/11/06 12:10:27;;;;;;;2.85;2.25;;;13.00;79.00;;;;;;5049604;28;20507;-66
2021/11/06 12:12:54;;;;;;;3.17;2.47;;;13.00;78.90;;;;;;5051491;28;20045;-66
2021/11/06 12:15:20;;;;;;;2.83;2.45;;;13.00;79.00;;;;;;5053071;28;20381;-63
2021/11/06 12:17:46;;;;;;;4.30;2.80;;;13.00;79.00;;;;;;5053346;28;20048;-63
2021/11/06 12:20:27;;;;;;;2.83;2.60;;;12.90;78.90;;;;;;5075877;28;20048;-66
2021/11/06 12:22:53;;;;;;;2.50;2.10;;;13.00;78.90;;;;;;5116942;27;20043;-64
2021/11/06 12:25:21;;;;;;;2.95;2.45;;;13.00;79.00;;;;;;5136211;27;20051;-59
2021/11/06 12:27:58;;;;;;;3.30;2.40;;;13.00;79.00;;;;;;5136783;27;20136;-66
2021/11/06 12:30:28;;;;;;;2.80;2.20;;;13.00;79.00;;;;;;5118379;27;20395;-67
2021/11/06 12:32:55;;;;;;;3.65;2.22;;;13.00;79.00;;;;;;5118139;27;20075;-63
2021/11/06 12:35:26;;;;;;;3.88;2.13;;;13.00;79.00;;;;;;5135659;27;20043;-62
2021/11/06 12:38:01;;;;;;;3.40;2.10;;;13.00;79.00;;;;;;5117840;27;20054;-69
2021/11/06 12:40:51;;;;;;;4.38;2.67;;;13.00;79.00;;;;;;5136661;27;20027;-62
2021/11/06 12:43:28;;;;;;;3.05;2.42;;;13.00;78.90;;;;;;5136180;27;20118;-68
2021/11/06 12:46:13;;;;;;;2.90;1.90;;;13.00;79.00;;;;;;5136066;27;20057;-69
2021/11/06 12:48:44;;;;;;;3.30;2.53;;;13.00;79.00;;;;;;5136019;27;20495;-66